createdAt,value
2018-11-14T00:00:25.346Z,2.23
2018-11-14T00:02:53.537Z,1.90
2018-11-14T00:05:21.723Z,2.07
2018-11-14T00:07:49.941Z,2.70
2018-11-14T00:10:18.727Z,2.53
2018-11-14T00:12:46.642Z,2.47
2018-11-14T00:15:16.246Z,2.43
2018-11-14T00:17:45.532Z,1.90
2018-11-14T00:20:14.093Z,2.80
2018-11-14T00:22:43.196Z,2.27
2018-11-14T00:25:11.386Z,2.10
2018-11-14T00:27:39.591Z,2.30
2018-11-14T00:30:09.642Z,1.83
2018-11-14T00:32:37.845Z,2.23
2018-11-14T00:35:06.062Z,2.00
2018-11-14T00:37:34.271Z,2.00
2018-11-14T00:40:02.461Z,1.67
2018-11-14T00:42:30.661Z,1.93
2018-11-14T00:44:58.859Z,1.60
2018-11-14T00:47:27.069Z,1.60
2018-11-14T00:49:55.298Z,1.60
2018-11-14T00:52:23.541Z,2.10
2018-11-14T00:54:51.739Z,2.00
2018-11-14T00:57:19.950Z,2.10
2018-11-14T00:59:48.141Z,1.90
2018-11-14T01:02:16.321Z,1.80
2018-11-14T01:04:44.501Z,1.80
2018-11-14T01:07:12.730Z,2.10
2018-11-14T01:09:40.933Z,1.87
2018-11-14T01:12:09.229Z,1.50
2018-11-14T01:14:37.334Z,1.77
2018-11-14T01:17:05.939Z,1.73
2018-11-14T01:19:34.131Z,1.50
2018-11-14T01:22:02.351Z,1.40
2018-11-14T01:24:30.583Z,1.53
2018-11-14T01:26:58.787Z,1.70
2018-11-14T01:29:26.977Z,1.57
2018-11-14T01:31:55.165Z,1.87
2018-11-14T01:34:23.370Z,1.60
2018-11-14T01:36:51.554Z,1.60
2018-11-14T01:39:19.749Z,1.60
2018-11-14T01:41:47.942Z,1.87
2018-11-14T01:44:16.129Z,1.70
2018-11-14T01:46:44.345Z,1.70
2018-11-14T01:49:12.543Z,1.90
2018-11-14T01:51:40.749Z,1.73
2018-11-14T01:54:08.945Z,1.70
2018-11-14T01:56:37.121Z,1.93
2018-11-14T01:59:05.306Z,1.60
2018-11-14T02:01:33.486Z,1.60
2018-11-14T02:04:01.719Z,1.40
2018-11-14T02:06:29.892Z,1.50
2018-11-14T02:08:58.090Z,1.60
2018-11-14T02:11:33.044Z,2.00
2018-11-14T02:14:01.249Z,1.50
2018-11-14T02:16:29.432Z,1.60
2018-11-14T02:18:57.626Z,1.70
2018-11-14T02:21:25.809Z,1.40
2018-11-14T02:23:54.016Z,1.60
2018-11-14T02:26:22.206Z,1.50
2018-11-14T02:28:51.765Z,1.43
2018-11-14T02:31:19.975Z,1.73
2018-11-14T02:33:48.191Z,1.50
2018-11-14T02:36:16.378Z,1.70
2018-11-14T02:38:44.584Z,1.73
2018-11-14T02:41:12.774Z,1.60
2018-11-14T02:43:40.961Z,1.40
2018-11-14T02:46:09.157Z,1.67
2018-11-14T02:48:37.354Z,1.90
2018-11-14T02:51:15.676Z,1.40
2018-11-14T02:53:43.871Z,1.80
2018-11-14T02:56:12.111Z,1.80
2018-11-14T02:58:40.310Z,1.80
2018-11-14T03:01:08.765Z,1.63
2018-11-14T03:06:11.576Z,1.93
2018-11-14T03:08:39.774Z,1.83
2018-11-14T03:11:08.529Z,1.70
2018-11-14T03:13:36.721Z,1.60
2018-11-14T03:16:05.041Z,1.43
2018-11-14T03:18:33.289Z,1.53
2018-11-14T03:21:01.569Z,2.00
2018-11-14T03:23:29.769Z,1.70
2018-11-14T03:25:57.969Z,2.07
2018-11-14T03:28:26.214Z,2.00
2018-11-14T03:30:54.393Z,1.97
2018-11-14T03:33:22.622Z,1.90
2018-11-14T03:35:56.177Z,2.20
2018-11-14T03:38:24.369Z,2.00
2018-11-14T03:40:52.555Z,1.77
2018-11-14T03:43:20.761Z,2.20
2018-11-14T03:45:48.972Z,2.00
2018-11-14T03:48:17.153Z,2.20
2018-11-14T03:50:45.353Z,2.50
2018-11-14T03:53:13.542Z,2.20
2018-11-14T03:55:41.737Z,2.33
2018-11-14T03:58:09.970Z,2.30
2018-11-14T04:00:38.130Z,1.90
2018-11-14T04:03:06.649Z,2.40
2018-11-14T04:05:34.895Z,2.73
2018-11-14T04:08:03.058Z,2.50
2018-11-14T04:10:31.249Z,2.27
2018-11-14T04:12:59.451Z,2.40
2018-11-14T04:15:27.648Z,2.60
2018-11-14T04:17:55.835Z,2.83
2018-11-14T04:20:24.030Z,2.80
2018-11-14T04:22:52.219Z,2.90
2018-11-14T04:25:21.058Z,2.63
2018-11-14T04:27:49.617Z,2.20
2018-11-14T04:30:19.231Z,2.33
2018-11-14T04:32:47.417Z,2.40
2018-11-14T04:35:16.506Z,2.20
2018-11-14T04:37:44.758Z,2.50
2018-11-14T04:40:15.005Z,2.37
2018-11-14T04:42:43.186Z,2.70
2018-11-14T04:45:16.296Z,2.00
2018-11-14T04:47:44.561Z,2.40
2018-11-14T04:50:14.865Z,2.77
2018-11-14T04:52:43.537Z,2.27
2018-11-14T04:55:13.873Z,2.77
2018-11-14T04:57:42.457Z,2.40
2018-11-14T05:00:11.972Z,2.50
2018-11-14T05:02:41.222Z,2.73
2018-11-14T05:05:11.494Z,2.70
2018-11-14T05:07:39.962Z,3.30
2018-11-14T05:10:10.080Z,3.37
2018-11-14T05:12:38.371Z,3.43
2018-11-14T05:15:07.230Z,3.37
2018-11-14T05:17:35.429Z,3.70
2018-11-14T05:20:03.641Z,3.57
2018-11-14T05:22:31.897Z,2.80
2018-11-14T05:25:00.261Z,3.20
2018-11-14T05:27:28.453Z,3.70
2018-11-14T05:29:56.649Z,3.00
2018-11-14T05:32:24.851Z,4.77
2018-11-14T05:34:53.099Z,4.23
2018-11-14T05:37:21.276Z,3.40
2018-11-14T05:39:49.639Z,3.80
2018-11-14T05:42:17.723Z,3.60
2018-11-14T05:44:46.013Z,4.47
2018-11-14T05:47:14.202Z,6.10
2018-11-14T05:49:42.421Z,6.90
2018-11-14T05:52:10.675Z,6.07
2018-11-14T05:54:39.295Z,5.53
2018-11-14T05:57:07.542Z,5.47
2018-11-14T05:59:35.748Z,5.27
2018-11-14T06:02:03.947Z,5.80
2018-11-14T06:04:32.186Z,6.13
2018-11-14T06:07:00.432Z,5.73
2018-11-14T06:09:28.610Z,5.80
2018-11-14T06:11:56.813Z,5.83
2018-11-14T06:14:25.013Z,5.00
2018-11-14T06:16:53.249Z,5.43
2018-11-14T06:19:21.425Z,6.37
2018-11-14T06:21:49.924Z,6.70
2018-11-14T06:24:18.067Z,5.93
2018-11-14T06:26:46.277Z,6.07
2018-11-14T06:29:14.491Z,6.70
2018-11-14T06:31:42.714Z,7.13
2018-11-14T06:34:10.947Z,7.13
2018-11-14T06:36:39.178Z,7.00
2018-11-14T06:39:10.298Z,6.70
2018-11-14T06:41:38.545Z,5.20
2018-11-14T06:44:07.667Z,5.00
2018-11-14T06:46:35.911Z,5.87
2018-11-14T06:49:04.223Z,5.50
2018-11-14T06:51:32.466Z,6.27
2018-11-14T06:54:00.650Z,6.10
2018-11-14T06:56:28.863Z,6.30
2018-11-14T06:58:57.162Z,6.40
2018-11-14T07:01:25.388Z,9.57
2018-11-14T07:03:53.606Z,8.13
2018-11-14T07:06:21.831Z,7.77
2018-11-14T07:08:50.053Z,8.77
2018-11-14T07:11:18.286Z,8.67
2018-11-14T07:13:46.489Z,7.90
2018-11-14T07:16:14.718Z,9.17
2018-11-14T07:18:42.918Z,10.20
2018-11-14T07:21:11.169Z,9.50
2018-11-14T07:23:39.409Z,8.37
2018-11-14T07:26:07.597Z,8.57
2018-11-14T07:28:35.794Z,9.03
2018-11-14T07:31:04.009Z,8.53
2018-11-14T07:33:32.252Z,9.90
2018-11-14T07:36:00.495Z,8.43
2018-11-14T07:38:48.379Z,9.87
2018-11-14T07:41:28.670Z,10.40
2018-11-14T07:43:57.152Z,10.00
2018-11-14T07:46:26.859Z,9.50
2018-11-14T07:48:55.131Z,8.63
2018-11-14T07:51:23.322Z,8.60
2018-11-14T07:53:51.710Z,8.70
2018-11-14T07:56:19.976Z,8.27
2018-11-14T07:58:48.254Z,8.37
2018-11-14T08:01:16.549Z,7.40
2018-11-14T08:03:45.202Z,8.10
2018-11-14T08:06:13.456Z,7.90
2018-11-14T08:08:41.953Z,8.20
2018-11-14T08:11:10.222Z,9.10
2018-11-14T08:13:39.946Z,8.90
2018-11-14T08:16:08.162Z,8.03
2018-11-14T08:18:36.417Z,7.70
2018-11-14T08:21:04.976Z,8.03
2018-11-14T08:23:33.207Z,7.53
2018-11-14T08:26:01.407Z,7.20
2018-11-14T08:28:29.633Z,7.80
2018-11-14T08:30:57.850Z,9.47
2018-11-14T08:33:26.091Z,7.77
2018-11-14T08:35:54.393Z,7.60
2018-11-14T08:38:22.664Z,7.80
2018-11-14T08:40:50.881Z,7.10
2018-11-14T08:43:19.100Z,6.37
2018-11-14T08:45:47.363Z,7.40
2018-11-14T08:48:15.582Z,7.70
2018-11-14T08:50:43.790Z,6.97
2018-11-14T08:53:12.276Z,6.37
2018-11-14T08:55:40.475Z,6.90
2018-11-14T08:58:11.910Z,6.70
2018-11-14T09:00:40.169Z,7.73
2018-11-14T09:03:10.303Z,8.93
2018-11-14T09:05:38.527Z,8.57
2018-11-14T09:08:06.751Z,9.90
2018-11-14T09:10:34.998Z,9.27
2018-11-14T09:13:03.302Z,10.40
2018-11-14T09:15:31.454Z,9.77
2018-11-14T09:17:59.745Z,8.30
2018-11-14T09:20:28.654Z,10.30
2018-11-14T09:22:56.881Z,8.50
2018-11-14T09:25:28.271Z,8.23
2018-11-14T09:27:57.135Z,8.90
2018-11-14T09:30:26.157Z,8.90
2018-11-14T09:32:54.462Z,8.60
2018-11-14T09:35:23.813Z,8.37
2018-11-14T09:37:52.577Z,9.53
2018-11-14T09:40:22.211Z,9.00
2018-11-14T09:42:50.417Z,9.10
2018-11-14T09:45:20.098Z,8.77
2018-11-14T09:47:48.360Z,9.83
2018-11-14T09:50:17.883Z,10.03
2018-11-14T09:52:47.406Z,9.43
2018-11-14T09:55:15.634Z,11.30
2018-11-14T09:57:44.261Z,11.43
2018-11-14T10:00:15.913Z,10.87
2018-11-14T10:02:44.257Z,10.03
2018-11-14T10:05:15.745Z,12.63
2018-11-14T10:07:44.341Z,11.83
2018-11-14T10:10:13.939Z,11.43
2018-11-14T10:12:42.139Z,11.07
2018-11-14T10:15:22.707Z,11.73
2018-11-14T10:17:50.887Z,12.20
2018-11-14T10:20:20.662Z,12.73
2018-11-14T10:22:48.914Z,12.07
2018-11-14T10:25:17.446Z,14.37
2018-11-14T10:27:46.294Z,14.43
2018-11-14T10:30:16.773Z,14.70
2018-11-14T10:32:45.743Z,14.40
2018-11-14T10:35:14.000Z,17.07
2018-11-14T10:37:42.517Z,17.03
2018-11-14T10:40:13.427Z,17.33
2018-11-14T10:42:42.592Z,15.60
2018-11-14T10:45:12.230Z,15.97
2018-11-14T10:47:40.745Z,17.00
2018-11-14T10:50:11.359Z,18.23
2018-11-14T10:52:39.629Z,21.00
2018-11-14T10:55:08.926Z,17.83
2018-11-14T10:57:37.707Z,18.00
2018-11-14T11:00:12.902Z,18.80
2018-11-14T11:02:46.466Z,17.13
2018-11-14T11:07:22.054Z,16.60
2018-11-14T11:10:53.141Z,14.57
2018-11-14T11:15:33.599Z,16.20
2018-11-14T11:18:04.139Z,15.33
2018-11-14T11:20:32.385Z,16.87
2018-11-14T11:23:00.618Z,15.50
2018-11-14T11:25:28.881Z,15.77
2018-11-14T11:27:57.107Z,17.97
2018-11-14T11:30:25.334Z,16.87
2018-11-14T11:32:53.582Z,17.27
2018-11-14T11:35:21.830Z,18.10
2018-11-14T11:37:50.033Z,17.47
2018-11-14T11:40:18.276Z,16.93
2018-11-14T11:42:46.498Z,15.27
2018-11-14T11:45:14.713Z,17.77
2018-11-14T11:47:42.920Z,16.00
2018-11-14T11:50:11.148Z,17.07
2018-11-14T11:52:39.324Z,16.83
2018-11-14T11:55:07.710Z,16.47
2018-11-14T11:57:35.970Z,17.13
2018-11-14T12:00:05.619Z,18.40
2018-11-14T12:02:33.835Z,19.97
2018-11-14T12:05:02.053Z,20.17
2018-11-14T12:07:30.270Z,18.90
2018-11-14T12:09:58.494Z,17.30
2018-11-14T12:12:26.726Z,19.07
2018-11-14T12:14:54.956Z,16.20
2018-11-14T12:17:23.206Z,16.77
2018-11-14T12:19:51.476Z,17.40
2018-11-14T12:22:19.701Z,17.57
2018-11-14T12:24:47.918Z,17.03
2018-11-14T12:27:16.228Z,16.93
2018-11-14T12:29:44.451Z,19.90
2018-11-14T12:32:12.853Z,18.00
2018-11-14T12:34:41.148Z,19.60
2018-11-14T12:37:09.297Z,18.60
2018-11-14T12:39:37.587Z,21.63
2018-11-14T12:42:06.129Z,19.13
2018-11-14T12:44:34.345Z,19.67
2018-11-14T12:47:02.565Z,20.30
2018-11-14T12:49:30.781Z,19.03
2018-11-14T12:51:59.027Z,18.30
2018-11-14T12:54:27.238Z,18.60
2018-11-14T12:56:55.506Z,18.40
2018-11-14T12:59:23.857Z,18.37
2018-11-14T13:01:52.034Z,20.17
2018-11-14T13:04:20.229Z,19.37
2018-11-14T13:06:48.468Z,20.47
2018-11-14T13:09:16.681Z,17.33
2018-11-14T13:11:44.877Z,16.80
2018-11-14T13:14:13.092Z,16.80
2018-11-14T13:16:41.315Z,18.73
2018-11-14T13:19:09.540Z,19.50
2018-11-14T13:21:37.761Z,17.50
2018-11-14T13:24:06.005Z,18.93
2018-11-14T13:26:34.253Z,20.03
2018-11-14T13:29:02.537Z,19.00
2018-11-14T13:31:30.763Z,18.57
2018-11-14T13:33:59.009Z,17.03
2018-11-14T13:36:27.234Z,19.63
2018-11-14T13:38:55.441Z,17.20
2018-11-14T13:41:23.642Z,18.00
2018-11-14T13:43:51.911Z,17.40
2018-11-14T13:46:20.126Z,16.50
2018-11-14T13:48:48.365Z,17.60
2018-11-14T13:51:16.778Z,17.60
2018-11-14T13:53:44.761Z,17.90
2018-11-14T13:56:13.013Z,17.73
2018-11-14T13:58:41.209Z,18.33
2018-11-14T14:01:09.473Z,16.43
2018-11-14T14:03:37.654Z,17.97
2018-11-14T14:06:05.857Z,17.00
2018-11-14T14:08:34.070Z,16.50
2018-11-14T14:11:02.286Z,17.33
2018-11-14T14:13:30.508Z,17.57
2018-11-14T14:15:58.718Z,17.30
2018-11-14T14:18:26.925Z,19.33
2018-11-14T14:20:55.145Z,18.97
2018-11-14T14:23:23.345Z,18.10
2018-11-14T14:25:51.563Z,19.00
2018-11-14T14:28:19.767Z,17.00
2018-11-14T14:30:48.035Z,17.97
2018-11-14T14:33:16.208Z,18.60
2018-11-14T14:35:44.422Z,18.47
2018-11-14T14:38:12.750Z,16.20
2018-11-14T14:40:40.897Z,17.20
2018-11-14T14:43:09.101Z,17.87
2018-11-14T14:45:37.324Z,17.70
2018-11-14T14:48:05.890Z,17.57
2018-11-14T14:50:34.105Z,17.73
2018-11-14T14:53:02.310Z,17.10
2018-11-14T14:55:30.521Z,17.40
2018-11-14T14:57:58.747Z,18.27
2018-11-14T15:00:28.055Z,18.50
2018-11-14T15:02:56.365Z,17.70
2018-11-14T15:05:24.578Z,17.40
2018-11-14T15:07:52.790Z,17.07
2018-11-14T15:10:22.162Z,28.70
2018-11-14T15:12:50.358Z,21.07
2018-11-14T15:15:19.038Z,19.77
2018-11-14T15:17:47.314Z,19.07
2018-11-14T15:20:17.631Z,19.10
2018-11-14T15:22:46.274Z,17.60
2018-11-14T15:25:15.786Z,17.40
2018-11-14T15:27:44.525Z,17.90
2018-11-14T15:30:15.646Z,19.67
2018-11-14T15:32:43.853Z,18.80
2018-11-14T15:35:13.554Z,18.93
2018-11-14T15:43:27.217Z,18.30
2018-11-14T15:45:55.877Z,19.97
2018-11-14T15:48:24.463Z,19.00
2018-11-14T15:50:53.065Z,20.57
2018-11-14T15:53:21.694Z,19.90
2018-11-14T15:55:50.425Z,20.00
2018-11-14T15:58:19.799Z,20.40
2018-11-14T16:00:48.537Z,20.90
2018-11-14T16:03:17.462Z,20.67
2018-11-14T16:05:46.675Z,20.07
2018-11-14T16:08:16.653Z,20.17
2018-11-14T16:10:48.990Z,20.70
2018-11-14T16:13:18.810Z,18.60
2018-11-14T16:15:47.202Z,20.17
2018-11-14T16:18:17.203Z,21.33
2018-11-14T16:20:45.744Z,19.10
2018-11-14T16:23:14.450Z,22.17
2018-11-14T16:25:43.294Z,21.17
2018-11-14T16:28:12.116Z,20.87
2018-11-14T16:30:40.820Z,22.73
2018-11-14T16:33:09.624Z,20.93
2018-11-14T16:35:38.306Z,28.07
2018-11-14T16:38:10.413Z,23.17
2018-11-14T16:40:38.971Z,23.00
2018-11-14T16:43:09.752Z,23.97
2018-11-14T16:45:38.269Z,23.17
2018-11-14T16:48:07.010Z,24.43
2018-11-14T16:50:35.855Z,22.17
2018-11-14T16:53:05.503Z,24.67
2018-11-14T16:55:35.893Z,24.10
2018-11-14T16:58:05.816Z,21.37
2018-11-14T17:00:34.971Z,20.17
2018-11-14T17:03:04.169Z,19.50
2018-11-14T17:05:33.475Z,23.90
2018-11-14T17:08:02.694Z,20.53
2018-11-14T17:10:31.819Z,20.33
2018-11-14T17:13:01.350Z,20.40
2018-11-14T17:15:30.183Z,20.83
2018-11-14T17:17:59.202Z,21.23
2018-11-14T17:20:28.726Z,22.93
2018-11-14T17:23:11.000Z,21.73
2018-11-14T17:25:39.697Z,20.70
2018-11-14T17:28:08.788Z,22.50
2018-11-14T17:30:37.589Z,22.33
2018-11-14T17:33:11.180Z,20.10
2018-11-14T17:35:40.152Z,17.53
2018-11-14T17:38:09.359Z,17.83
2018-11-14T17:40:38.713Z,17.90
2018-11-14T17:43:07.620Z,16.47
2018-11-14T17:45:38.060Z,17.90
2018-11-14T17:48:06.265Z,18.27
2018-11-14T17:50:34.760Z,18.27
2018-11-14T17:53:03.637Z,19.87
2018-11-14T17:55:32.027Z,20.00
2018-11-14T17:58:00.505Z,18.50
2018-11-14T18:00:29.997Z,19.47
2018-11-14T18:02:58.228Z,18.03
2018-11-14T18:05:27.673Z,16.63
2018-11-14T18:07:56.042Z,16.93
2018-11-14T18:10:25.511Z,17.83
2018-11-14T18:12:54.662Z,16.73
2018-11-14T18:15:22.867Z,17.20
2018-11-14T18:17:52.810Z,17.00
2018-11-14T18:20:22.379Z,17.03
2018-11-14T18:22:51.368Z,17.50
2018-11-14T18:25:22.537Z,18.03
2018-11-14T18:27:50.797Z,18.80
2018-11-14T18:30:20.221Z,20.27
2018-11-14T18:32:48.685Z,20.80
2018-11-14T18:35:17.848Z,19.93
2018-11-14T18:37:46.644Z,20.10
2018-11-14T18:40:17.083Z,20.83
2018-11-14T18:42:45.391Z,21.87
2018-11-14T18:45:19.022Z,22.23
2018-11-14T18:47:47.641Z,17.50
2018-11-14T18:50:16.722Z,21.47
2018-11-14T18:52:45.730Z,17.63
2018-11-14T18:55:15.276Z,17.40
2018-11-14T18:57:43.775Z,17.60
2018-11-14T19:00:15.546Z,18.47
2018-11-14T19:02:44.054Z,20.03
2018-11-14T19:05:12.647Z,17.17
2018-11-14T19:07:41.123Z,19.83
2018-11-14T19:10:11.764Z,17.13
2018-11-14T19:12:40.508Z,17.03
2018-11-14T19:15:15.893Z,17.07
2018-11-14T19:17:44.125Z,19.10
2018-11-14T19:20:13.891Z,17.50
2018-11-14T19:22:42.367Z,19.43
2018-11-14T19:25:13.086Z,19.37
2018-11-14T19:27:41.785Z,20.03
2018-11-14T19:30:12.418Z,19.77
2018-11-14T19:32:40.893Z,17.57
2018-11-14T19:35:10.415Z,17.67
2018-11-14T19:37:38.886Z,18.57
2018-11-14T19:40:09.440Z,17.33
2018-11-14T19:42:37.673Z,17.63
2018-11-14T19:45:09.468Z,15.03
2018-11-14T19:47:37.698Z,16.77
2018-11-14T19:50:08.046Z,18.10
2018-11-14T19:52:36.334Z,17.27
2018-11-14T19:55:04.905Z,19.47
2018-11-14T19:57:33.131Z,18.80
2018-11-14T20:00:01.548Z,18.93
2018-11-14T20:02:29.787Z,18.90
2018-11-14T20:04:58.030Z,18.93
2018-11-14T20:07:26.235Z,19.77
2018-11-14T20:09:54.449Z,18.10
2018-11-14T20:12:22.753Z,19.90
2018-11-14T20:14:51.084Z,19.00
2018-11-14T20:17:19.310Z,18.70
2018-11-14T20:19:47.522Z,19.67
2018-11-14T20:22:15.771Z,17.63
2018-11-14T20:24:44.072Z,16.90
2018-11-14T20:27:12.270Z,17.93
2018-11-14T20:29:40.539Z,16.93
2018-11-14T20:32:08.829Z,19.43
2018-11-14T20:34:37.072Z,17.80
2018-11-14T20:37:05.323Z,18.43
2018-11-14T20:39:33.533Z,17.33
2018-11-14T20:42:01.779Z,15.40
2018-11-14T20:44:30.210Z,16.23
2018-11-14T20:46:58.434Z,16.50
2018-11-14T20:49:26.662Z,18.37
2018-11-14T20:51:54.872Z,16.00
2018-11-14T20:54:23.078Z,14.90
2018-11-14T20:56:51.272Z,17.07
2018-11-14T20:59:19.475Z,15.50
2018-11-14T21:01:47.668Z,15.60
2018-11-14T21:04:15.870Z,17.20
2018-11-14T21:06:44.070Z,16.60
2018-11-14T21:09:12.286Z,17.27
2018-11-14T21:11:40.488Z,14.67
2018-11-14T21:14:08.693Z,16.37
2018-11-14T21:16:36.892Z,17.00
2018-11-14T21:19:05.103Z,14.40
2018-11-14T21:21:33.301Z,16.20
2018-11-14T21:24:01.549Z,16.60
2018-11-14T21:26:29.729Z,14.10
2018-11-14T21:28:57.968Z,13.80
2018-11-14T21:31:26.158Z,14.73
2018-11-14T21:33:54.389Z,15.13
2018-11-14T21:36:22.583Z,14.83
2018-11-14T21:38:50.789Z,15.27
2018-11-14T21:41:19.001Z,14.90
2018-11-14T21:43:47.205Z,14.83
2018-11-14T21:46:15.446Z,13.63
2018-11-14T21:48:43.653Z,12.73
2018-11-14T21:51:11.892Z,14.50
2018-11-14T21:53:40.097Z,13.90
2018-11-14T21:56:08.304Z,15.20
2018-11-14T21:58:36.518Z,12.73
2018-11-14T22:01:05.143Z,11.90
2018-11-14T22:03:33.353Z,12.10
2018-11-14T22:06:01.583Z,11.00
2018-11-14T22:08:29.770Z,9.80
2018-11-14T22:10:57.973Z,11.23
2018-11-14T22:13:26.201Z,11.27
2018-11-14T22:15:54.406Z,11.03
2018-11-14T22:18:22.621Z,12.20
2018-11-14T22:20:50.815Z,10.10
2018-11-14T22:23:19.012Z,10.80
2018-11-14T22:25:47.209Z,10.07
2018-11-14T22:28:15.399Z,11.13
2018-11-14T22:30:43.602Z,10.10
2018-11-14T22:33:11.785Z,10.20
2018-11-14T22:35:39.977Z,9.50
2018-11-14T22:38:08.158Z,9.73
2018-11-14T22:40:36.394Z,9.13
2018-11-14T22:43:04.694Z,8.83
2018-11-14T22:45:33.423Z,10.07
2018-11-14T22:48:01.617Z,10.30
2018-11-14T22:50:29.807Z,11.07
2018-11-14T22:52:58.007Z,10.60
2018-11-14T22:55:26.532Z,9.23
2018-11-14T22:57:55.013Z,10.13
2018-11-14T23:00:26.261Z,8.83
2018-11-14T23:02:55.549Z,9.47
2018-11-14T23:05:23.787Z,8.80
2018-11-14T23:07:53.060Z,8.30
2018-11-14T23:10:22.121Z,9.20
2018-11-14T23:12:50.597Z,8.90
2018-11-14T23:15:19.313Z,9.00
2018-11-14T23:17:47.478Z,7.27
2018-11-14T23:20:16.366Z,7.97
2018-11-14T23:22:45.253Z,8.00
2018-11-14T23:25:13.942Z,8.90
2018-11-14T23:27:44.071Z,8.57
2018-11-14T23:30:13.268Z,7.90
2018-11-14T23:32:42.651Z,7.00
2018-11-14T23:35:16.189Z,7.70
2018-11-14T23:37:45.870Z,7.37
2018-11-14T23:40:14.066Z,7.53
2018-11-14T23:42:42.281Z,7.37
2018-11-14T23:45:12.551Z,8.07
2018-11-14T23:47:41.114Z,7.23
2018-11-14T23:50:11.998Z,7.80
2018-11-14T23:52:40.585Z,8.60
2018-11-14T23:55:09.142Z,8.20
2018-11-14T23:57:37.609Z,7.93
